sensor_id;sensor_type;location;lat;lon;timestamp;P1;durP1;ratioP1;P2;durP2;ratioP2
72060;SDS011;59925;52.136;5.420;2022-12-29T00:01:53;1.73;;;1.02;;
72060;SDS011;59925;52.136;5.420;2022-12-29T00:04:21;2.80;;;1.35;;
72060;SDS011;59925;52.136;5.420;2022-12-29T00:06:48;2.85;;;1.48;;
72060;SDS011;59925;52.136;5.420;2022-12-29T00:09:15;1.87;;;1.00;;
72060;SDS011;59925;52.136;5.420;2022-12-29T00:11:42;2.38;;;1.02;;
72060;SDS011;59925;52.136;5.420;2022-12-29T00:14:09;1.90;;;0.90;;
72060;SDS011;59925;52.136;5.420;2022-12-29T00:16:54;1.38;;;0.80;;
72060;SDS011;59925;52.136;5.420;2022-12-29T00:19:21;1.50;;;0.88;;
72060;SDS011;59925;52.136;5.420;2022-12-29T00:22:07;3.07;;;1.10;;
72060;SDS011;59925;52.136;5.420;2022-12-29T00:24:54;1.48;;;0.80;;
72060;SDS011;59925;52.136;5.420;2022-12-29T00:27:21;1.88;;;0.90;;
72060;SDS011;59925;52.136;5.420;2022-12-29T00:30:09;3.47;;;1.20;;
72060;SDS011;59925;52.136;5.420;2022-12-29T00:32:56;1.50;;;0.80;;
72060;SDS011;59925;52.136;5.420;2022-12-29T00:35:44;1.60;;;0.90;;
72060;SDS011;59925;52.136;5.420;2022-12-29T00:38:13;2.80;;;0.80;;
72060;SDS011;59925;52.136;5.420;2022-12-29T00:40:58;2.33;;;0.90;;
72060;SDS011;59925;52.136;5.420;2022-12-29T00:43:43;1.77;;;0.80;;
72060;SDS011;59925;52.136;5.420;2022-12-29T00:46:28;2.17;;;0.90;;
72060;SDS011;59925;52.136;5.420;2022-12-29T00:48:55;1.47;;;0.87;;
72060;SDS011;59925;52.136;5.420;2022-12-29T00:51:40;2.33;;;1.20;;
72060;SDS011;59925;52.136;5.420;2022-12-29T00:54:06;2.65;;;0.80;;
72060;SDS011;59925;52.136;5.420;2022-12-29T00:56:33;1.88;;;0.80;;
72060;SDS011;59925;52.136;5.420;2022-12-29T00:59:00;2.78;;;0.88;;
72060;SDS011;59925;52.136;5.420;2022-12-29T01:01:27;1.50;;;0.77;;
72060;SDS011;59925;52.136;5.420;2022-12-29T01:03:54;1.70;;;0.65;;
72060;SDS011;59925;52.136;5.420;2022-12-29T01:06:28;1.80;;;0.80;;
72060;SDS011;59925;52.136;5.420;2022-12-29T01:08:55;2.63;;;0.77;;
72060;SDS011;59925;52.136;5.420;2022-12-29T01:11:40;5.03;;;1.00;;
72060;SDS011;59925;52.136;5.420;2022-12-29T01:14:07;1.73;;;0.50;;
72060;SDS011;59925;52.136;5.420;2022-12-29T01:16:33;2.08;;;0.52;;
72060;SDS011;59925;52.136;5.420;2022-12-29T01:19:00;0.93;;;0.52;;
72060;SDS011;59925;52.136;5.420;2022-12-29T01:21:26;1.30;;;0.60;;
72060;SDS011;59925;52.136;5.420;2022-12-29T01:23:53;1.45;;;0.80;;
72060;SDS011;59925;52.136;5.420;2022-12-29T01:26:19;4.27;;;0.80;;
72060;SDS011;59925;52.136;5.420;2022-12-29T01:28:46;1.80;;;0.70;;
72060;SDS011;59925;52.136;5.420;2022-12-29T01:31:13;1.17;;;0.52;;
72060;SDS011;59925;52.136;5.420;2022-12-29T01:33:41;3.42;;;0.50;;
72060;SDS011;59925;52.136;5.420;2022-12-29T01:36:10;3.42;;;0.73;;
72060;SDS011;59925;52.136;5.420;2022-12-29T01:38:39;1.33;;;0.60;;
72060;SDS011;59925;52.136;5.420;2022-12-29T01:41:07;2.40;;;0.70;;
72060;SDS011;59925;52.136;5.420;2022-12-29T01:43:40;2.15;;;1.05;;
72060;SDS011;59925;52.136;5.420;2022-12-29T01:46:54;1.65;;;0.50;;
72060;SDS011;59925;52.136;5.420;2022-12-29T01:51:45;1.20;;;0.60;;
72060;SDS011;59925;52.136;5.420;2022-12-29T01:54:28;1.02;;;0.50;;
72060;SDS011;59925;52.136;5.420;2022-12-29T01:56:56;1.05;;;0.57;;
72060;SDS011;59925;52.136;5.420;2022-12-29T01:59:28;2.08;;;0.70;;
72060;SDS011;59925;52.136;5.420;2022-12-29T02:01:58;1.63;;;0.73;;
72060;SDS011;59925;52.136;5.420;2022-12-29T02:04:26;1.87;;;0.50;;
72060;SDS011;59925;52.136;5.420;2022-12-29T02:07:01;1.23;;;0.60;;
72060;SDS011;59925;52.136;5.420;2022-12-29T02:09:32;1.65;;;0.60;;
72060;SDS011;59925;52.136;5.420;2022-12-29T02:11:58;1.83;;;0.50;;
72060;SDS011;59925;52.136;5.420;2022-12-29T02:14:25;2.75;;;0.82;;
72060;SDS011;59925;52.136;5.420;2022-12-29T02:17:05;1.10;;;0.70;;
72060;SDS011;59925;52.136;5.420;2022-12-29T02:34:19;2.78;;;0.57;;
72060;SDS011;59925;52.136;5.420;2022-12-29T02:36:47;2.45;;;0.82;;
72060;SDS011;59925;52.136;5.420;2022-12-29T02:39:38;2.15;;;0.50;;
72060;SDS011;59925;52.136;5.420;2022-12-29T02:42:33;3.50;;;1.00;;
72060;SDS011;59925;52.136;5.420;2022-12-29T02:45:05;2.50;;;0.50;;
72060;SDS011;59925;52.136;5.420;2022-12-29T02:47:47;2.25;;;0.45;;
72060;SDS011;59925;52.136;5.420;2022-12-29T02:50:22;1.13;;;0.40;;
72060;SDS011;59925;52.136;5.420;2022-12-29T02:52:54;3.03;;;0.30;;
72060;SDS011;59925;52.136;5.420;2022-12-29T02:55:25;1.98;;;0.57;;
72060;SDS011;59925;52.136;5.420;2022-12-29T03:03:24;2.50;;;0.47;;
72060;SDS011;59925;52.136;5.420;2022-12-29T03:06:09;2.90;;;0.40;;
72060;SDS011;59925;52.136;5.420;2022-12-29T03:08:51;3.60;;;0.35;;
72060;SDS011;59925;52.136;5.420;2022-12-29T03:11:50;0.57;;;0.33;;
72060;SDS011;59925;52.136;5.420;2022-12-29T03:15:07;1.27;;;0.40;;
72060;SDS011;59925;52.136;5.420;2022-12-29T03:17:55;2.00;;;0.30;;
72060;SDS011;59925;52.136;5.420;2022-12-29T03:20:31;1.95;;;0.30;;
72060;SDS011;59925;52.136;5.420;2022-12-29T03:23:08;1.02;;;0.60;;
72060;SDS011;59925;52.136;5.420;2022-12-29T03:25:45;1.07;;;0.30;;
72060;SDS011;59925;52.136;5.420;2022-12-29T03:28:18;2.15;;;0.40;;
72060;SDS011;59925;52.136;5.420;2022-12-29T03:30:48;2.33;;;0.30;;
72060;SDS011;59925;52.136;5.420;2022-12-29T03:33:17;1.63;;;0.20;;
72060;SDS011;59925;52.136;5.420;2022-12-29T03:35:47;2.63;;;0.50;;
72060;SDS011;59925;52.136;5.420;2022-12-29T03:38:23;0.70;;;0.30;;
72060;SDS011;59925;52.136;5.420;2022-12-29T03:40:56;1.58;;;0.40;;
72060;SDS011;59925;52.136;5.420;2022-12-29T03:43:26;0.90;;;0.30;;
72060;SDS011;59925;52.136;5.420;2022-12-29T03:45:54;2.03;;;0.50;;
72060;SDS011;59925;52.136;5.420;2022-12-29T03:48:21;1.00;;;0.30;;
72060;SDS011;59925;52.136;5.420;2022-12-29T03:50:47;4.77;;;0.80;;
72060;SDS011;59925;52.136;5.420;2022-12-29T03:53:13;1.98;;;0.60;;
72060;SDS011;59925;52.136;5.420;2022-12-29T03:55:40;2.08;;;0.57;;
72060;SDS011;59925;52.136;5.420;2022-12-29T03:58:06;1.45;;;0.50;;
72060;SDS011;59925;52.136;5.420;2022-12-29T04:00:32;2.10;;;0.40;;
72060;SDS011;59925;52.136;5.420;2022-12-29T04:02:59;1.53;;;0.60;;
72060;SDS011;59925;52.136;5.420;2022-12-29T04:05:26;1.25;;;0.50;;
72060;SDS011;59925;52.136;5.420;2022-12-29T04:07:52;3.38;;;0.70;;
72060;SDS011;59925;52.136;5.420;2022-12-29T04:10:19;0.98;;;0.50;;
72060;SDS011;59925;52.136;5.420;2022-12-29T04:12:45;2.05;;;0.77;;
72060;SDS011;59925;52.136;5.420;2022-12-29T04:15:12;1.93;;;0.60;;
72060;SDS011;59925;52.136;5.420;2022-12-29T04:17:39;2.83;;;0.60;;
72060;SDS011;59925;52.136;5.420;2022-12-29T04:20:05;2.00;;;0.32;;
72060;SDS011;59925;52.136;5.420;2022-12-29T04:22:58;2.92;;;0.40;;
72060;SDS011;59925;52.136;5.420;2022-12-29T04:25:25;5.25;;;0.60;;
72060;SDS011;59925;52.136;5.420;2022-12-29T04:27:52;4.10;;;0.40;;
72060;SDS011;59925;52.136;5.420;2022-12-29T04:30:18;5.72;;;0.52;;
72060;SDS011;59925;52.136;5.420;2022-12-29T04:32:45;4.88;;;0.50;;
72060;SDS011;59925;52.136;5.420;2022-12-29T04:35:11;3.13;;;0.50;;
72060;SDS011;59925;52.136;5.420;2022-12-29T04:37:38;4.03;;;0.38;;
72060;SDS011;59925;52.136;5.420;2022-12-29T04:40:04;5.57;;;0.47;;
72060;SDS011;59925;52.136;5.420;2022-12-29T04:42:31;2.50;;;0.47;;
72060;SDS011;59925;52.136;5.420;2022-12-29T04:44:58;3.00;;;0.50;;
72060;SDS011;59925;52.136;5.420;2022-12-29T04:47:24;4.80;;;0.60;;
72060;SDS011;59925;52.136;5.420;2022-12-29T04:49:50;6.15;;;0.90;;
72060;SDS011;59925;52.136;5.420;2022-12-29T04:52:17;8.17;;;0.53;;
72060;SDS011;59925;52.136;5.420;2022-12-29T04:54:43;4.95;;;0.65;;
72060;SDS011;59925;52.136;5.420;2022-12-29T04:57:10;6.85;;;0.65;;
72060;SDS011;59925;52.136;5.420;2022-12-29T04:59:36;4.82;;;0.43;;
72060;SDS011;59925;52.136;5.420;2022-12-29T05:02:02;8.45;;;0.77;;
72060;SDS011;59925;52.136;5.420;2022-12-29T05:04:29;6.27;;;0.70;;
72060;SDS011;59925;52.136;5.420;2022-12-29T05:06:55;4.38;;;0.60;;
72060;SDS011;59925;52.136;5.420;2022-12-29T05:09:22;5.07;;;0.70;;
72060;SDS011;59925;52.136;5.420;2022-12-29T05:11:49;7.10;;;0.52;;
72060;SDS011;59925;52.136;5.420;2022-12-29T05:14:16;7.47;;;0.50;;
72060;SDS011;59925;52.136;5.420;2022-12-29T05:16:43;5.97;;;0.50;;
72060;SDS011;59925;52.136;5.420;2022-12-29T05:19:10;5.45;;;0.40;;
72060;SDS011;59925;52.136;5.420;2022-12-29T05:21:36;7.63;;;1.17;;
72060;SDS011;59925;52.136;5.420;2022-12-29T05:24:03;6.53;;;0.50;;
72060;SDS011;59925;52.136;5.420;2022-12-29T05:26:29;4.88;;;0.40;;
72060;SDS011;59925;52.136;5.420;2022-12-29T05:28:56;5.27;;;0.53;;
72060;SDS011;59925;52.136;5.420;2022-12-29T05:31:22;6.13;;;0.60;;
72060;SDS011;59925;52.136;5.420;2022-12-29T05:33:49;8.32;;;0.73;;
72060;SDS011;59925;52.136;5.420;2022-12-29T05:36:15;6.82;;;0.55;;
72060;SDS011;59925;52.136;5.420;2022-12-29T05:38:43;4.07;;;0.60;;
72060;SDS011;59925;52.136;5.420;2022-12-29T05:41:10;4.03;;;0.57;;
72060;SDS011;59925;52.136;5.420;2022-12-29T05:43:37;9.70;;;0.65;;
72060;SDS011;59925;52.136;5.420;2022-12-29T05:46:03;5.63;;;0.50;;
72060;SDS011;59925;52.136;5.420;2022-12-29T05:48:30;8.15;;;0.73;;
72060;SDS011;59925;52.136;5.420;2022-12-29T05:51:03;5.55;;;0.65;;
72060;SDS011;59925;52.136;5.420;2022-12-29T05:53:29;6.13;;;0.80;;
72060;SDS011;59925;52.136;5.420;2022-12-29T05:55:56;5.90;;;0.77;;
72060;SDS011;59925;52.136;5.420;2022-12-29T05:58:22;7.28;;;1.13;;
72060;SDS011;59925;52.136;5.420;2022-12-29T06:00:48;10.95;;;0.60;;
72060;SDS011;59925;52.136;5.420;2022-12-29T06:03:15;3.97;;;0.57;;
72060;SDS011;59925;52.136;5.420;2022-12-29T06:05:41;9.43;;;0.63;;
72060;SDS011;59925;52.136;5.420;2022-12-29T06:08:08;3.28;;;0.30;;
72060;SDS011;59925;52.136;5.420;2022-12-29T06:10:34;5.32;;;0.38;;
72060;SDS011;59925;52.136;5.420;2022-12-29T06:13:00;6.80;;;0.50;;
72060;SDS011;59925;52.136;5.420;2022-12-29T06:15:27;4.70;;;0.55;;
72060;SDS011;59925;52.136;5.420;2022-12-29T06:17:53;8.87;;;0.80;;
72060;SDS011;59925;52.136;5.420;2022-12-29T06:20:20;6.32;;;0.82;;
72060;SDS011;59925;52.136;5.420;2022-12-29T06:22:46;4.60;;;0.40;;
72060;SDS011;59925;52.136;5.420;2022-12-29T06:25:12;9.38;;;0.90;;
72060;SDS011;59925;52.136;5.420;2022-12-29T06:27:39;3.65;;;0.60;;
72060;SDS011;59925;52.136;5.420;2022-12-29T06:30:05;5.47;;;0.70;;
72060;SDS011;59925;52.136;5.420;2022-12-29T06:32:32;8.05;;;0.70;;
72060;SDS011;59925;52.136;5.420;2022-12-29T06:34:59;8.43;;;0.85;;
72060;SDS011;59925;52.136;5.420;2022-12-29T06:37:25;3.72;;;0.73;;
72060;SDS011;59925;52.136;5.420;2022-12-29T06:39:52;7.55;;;0.57;;
72060;SDS011;59925;52.136;5.420;2022-12-29T06:42:19;13.23;;;0.73;;
72060;SDS011;59925;52.136;5.420;2022-12-29T06:44:45;4.35;;;0.90;;
72060;SDS011;59925;52.136;5.420;2022-12-29T06:47:11;4.72;;;0.40;;
72060;SDS011;59925;52.136;5.420;2022-12-29T06:49:38;6.45;;;0.52;;
72060;SDS011;59925;52.136;5.420;2022-12-29T06:52:05;6.57;;;0.57;;
72060;SDS011;59925;52.136;5.420;2022-12-29T06:54:37;5.77;;;0.80;;
72060;SDS011;59925;52.136;5.420;2022-12-29T06:57:04;5.90;;;0.70;;
72060;SDS011;59925;52.136;5.420;2022-12-29T06:59:30;8.20;;;0.80;;
72060;SDS011;59925;52.136;5.420;2022-12-29T07:01:57;8.48;;;0.60;;
72060;SDS011;59925;52.136;5.420;2022-12-29T07:04:23;6.05;;;0.60;;
72060;SDS011;59925;52.136;5.420;2022-12-29T07:06:50;9.27;;;1.23;;
72060;SDS011;59925;52.136;5.420;2022-12-29T07:09:16;7.93;;;0.60;;
72060;SDS011;59925;52.136;5.420;2022-12-29T07:11:43;8.18;;;0.80;;
72060;SDS011;59925;52.136;5.420;2022-12-29T07:14:10;7.30;;;0.57;;
72060;SDS011;59925;52.136;5.420;2022-12-29T07:16:37;4.75;;;0.40;;
72060;SDS011;59925;52.136;5.420;2022-12-29T07:19:03;4.33;;;0.33;;
72060;SDS011;59925;52.136;5.420;2022-12-29T07:21:30;8.00;;;0.60;;
72060;SDS011;59925;52.136;5.420;2022-12-29T07:23:56;2.78;;;0.50;;
72060;SDS011;59925;52.136;5.420;2022-12-29T07:26:23;4.47;;;0.32;;
72060;SDS011;59925;52.136;5.420;2022-12-29T07:28:50;5.32;;;0.45;;
72060;SDS011;59925;52.136;5.420;2022-12-29T07:31:17;6.27;;;0.50;;
72060;SDS011;59925;52.136;5.420;2022-12-29T07:33:46;4.68;;;0.57;;
72060;SDS011;59925;52.136;5.420;2022-12-29T07:36:14;6.07;;;0.90;;
72060;SDS011;59925;52.136;5.420;2022-12-29T07:38:42;5.93;;;0.32;;
72060;SDS011;59925;52.136;5.420;2022-12-29T07:41:08;2.75;;;0.40;;
72060;SDS011;59925;52.136;5.420;2022-12-29T07:43:35;5.80;;;0.40;;
72060;SDS011;59925;52.136;5.420;2022-12-29T07:46:02;7.85;;;0.70;;
72060;SDS011;59925;52.136;5.420;2022-12-29T07:48:28;7.85;;;0.90;;
72060;SDS011;59925;52.136;5.420;2022-12-29T07:50:54;4.43;;;0.75;;
72060;SDS011;59925;52.136;5.420;2022-12-29T07:53:21;7.43;;;1.25;;
72060;SDS011;59925;52.136;5.420;2022-12-29T07:55:47;6.50;;;0.50;;
72060;SDS011;59925;52.136;5.420;2022-12-29T07:58:14;5.07;;;0.70;;
72060;SDS011;59925;52.136;5.420;2022-12-29T08:00:40;6.10;;;0.47;;
72060;SDS011;59925;52.136;5.420;2022-12-29T08:03:06;9.52;;;0.70;;
72060;SDS011;59925;52.136;5.420;2022-12-29T08:05:33;3.15;;;0.52;;
72060;SDS011;59925;52.136;5.420;2022-12-29T08:08:00;6.07;;;0.70;;
72060;SDS011;59925;52.136;5.420;2022-12-29T08:10:26;6.63;;;0.90;;
72060;SDS011;59925;52.136;5.420;2022-12-29T08:12:53;6.65;;;0.75;;
72060;SDS011;59925;52.136;5.420;2022-12-29T08:15:19;6.35;;;0.77;;
72060;SDS011;59925;52.136;5.420;2022-12-29T08:17:49;5.68;;;0.70;;
72060;SDS011;59925;52.136;5.420;2022-12-29T08:20:16;6.77;;;0.90;;
72060;SDS011;59925;52.136;5.420;2022-12-29T08:22:42;10.50;;;0.80;;
72060;SDS011;59925;52.136;5.420;2022-12-29T08:25:08;4.65;;;0.63;;
72060;SDS011;59925;52.136;5.420;2022-12-29T08:27:35;7.63;;;0.77;;
72060;SDS011;59925;52.136;5.420;2022-12-29T08:30:01;7.90;;;1.13;;
72060;SDS011;59925;52.136;5.420;2022-12-29T08:32:28;5.77;;;0.43;;
72060;SDS011;59925;52.136;5.420;2022-12-29T08:34:55;7.63;;;0.85;;
72060;SDS011;59925;52.136;5.420;2022-12-29T08:37:21;9.05;;;0.60;;
72060;SDS011;59925;52.136;5.420;2022-12-29T08:39:56;5.70;;;0.77;;
72060;SDS011;59925;52.136;5.420;2022-12-29T08:42:23;7.30;;;0.90;;
72060;SDS011;59925;52.136;5.420;2022-12-29T08:44:51;10.47;;;0.83;;
72060;SDS011;59925;52.136;5.420;2022-12-29T08:47:17;9.50;;;0.80;;
72060;SDS011;59925;52.136;5.420;2022-12-29T08:49:43;8.80;;;1.00;;
72060;SDS011;59925;52.136;5.420;2022-12-29T08:52:10;9.00;;;0.50;;
72060;SDS011;59925;52.136;5.420;2022-12-29T08:54:36;7.10;;;1.05;;
72060;SDS011;59925;52.136;5.420;2022-12-29T08:57:03;7.87;;;0.87;;
72060;SDS011;59925;52.136;5.420;2022-12-29T08:59:29;4.97;;;0.70;;
72060;SDS011;59925;52.136;5.420;2022-12-29T09:01:55;3.75;;;0.40;;
72060;SDS011;59925;52.136;5.420;2022-12-29T09:04:22;5.70;;;0.70;;
72060;SDS011;59925;52.136;5.420;2022-12-29T09:06:49;11.40;;;1.42;;
72060;SDS011;59925;52.136;5.420;2022-12-29T09:09:16;15.43;;;1.33;;
72060;SDS011;59925;52.136;5.420;2022-12-29T09:11:43;8.32;;;0.80;;
72060;SDS011;59925;52.136;5.420;2022-12-29T09:14:09;10.05;;;0.70;;
72060;SDS011;59925;52.136;5.420;2022-12-29T09:16:36;5.25;;;0.65;;
72060;SDS011;59925;52.136;5.420;2022-12-29T09:19:03;4.43;;;1.00;;
72060;SDS011;59925;52.136;5.420;2022-12-29T09:21:30;11.17;;;0.70;;
72060;SDS011;59925;52.136;5.420;2022-12-29T09:23:56;8.05;;;0.68;;
72060;SDS011;59925;52.136;5.420;2022-12-29T09:26:23;8.50;;;1.05;;
72060;SDS011;59925;52.136;5.420;2022-12-29T09:28:49;3.72;;;0.57;;
72060;SDS011;59925;52.136;5.420;2022-12-29T09:31:15;5.75;;;0.60;;
72060;SDS011;59925;52.136;5.420;2022-12-29T09:33:42;5.27;;;1.03;;
72060;SDS011;59925;52.136;5.420;2022-12-29T09:36:08;7.32;;;0.70;;
72060;SDS011;59925;52.136;5.420;2022-12-29T09:38:35;6.07;;;0.85;;
72060;SDS011;59925;52.136;5.420;2022-12-29T09:41:07;6.03;;;0.70;;
72060;SDS011;59925;52.136;5.420;2022-12-29T09:43:47;6.03;;;0.63;;
72060;SDS011;59925;52.136;5.420;2022-12-29T09:46:27;7.53;;;0.93;;
72060;SDS011;59925;52.136;5.420;2022-12-29T09:49:09;13.30;;;1.42;;
72060;SDS011;59925;52.136;5.420;2022-12-29T09:51:39;4.43;;;0.50;;
72060;SDS011;59925;52.136;5.420;2022-12-29T09:57:03;6.00;;;0.45;;
72060;SDS011;59925;52.136;5.420;2022-12-29T09:59:39;11.03;;;0.70;;
72060;SDS011;59925;52.136;5.420;2022-12-29T10:02:13;3.63;;;0.95;;
72060;SDS011;59925;52.136;5.420;2022-12-29T10:04:48;7.07;;;0.60;;
72060;SDS011;59925;52.136;5.420;2022-12-29T10:10:17;5.95;;;0.55;;
72060;SDS011;59925;52.136;5.420;2022-12-29T10:13:15;5.70;;;0.67;;
72060;SDS011;59925;52.136;5.420;2022-12-29T10:15:55;2.20;;;0.65;;
72060;SDS011;59925;52.136;5.420;2022-12-29T10:18:59;6.60;;;0.90;;
72060;SDS011;59925;52.136;5.420;2022-12-29T10:24:21;2.80;;;0.40;;
72060;SDS011;59925;52.136;5.420;2022-12-29T10:26:48;5.37;;;0.50;;
72060;SDS011;59925;52.136;5.420;2022-12-29T10:29:24;5.30;;;0.77;;
72060;SDS011;59925;52.136;5.420;2022-12-29T10:32:00;3.55;;;0.80;;
72060;SDS011;59925;52.136;5.420;2022-12-29T10:34:31;3.63;;;0.47;;
72060;SDS011;59925;52.136;5.420;2022-12-29T10:40:27;9.50;;;1.10;;
72060;SDS011;59925;52.136;5.420;2022-12-29T10:42:59;7.13;;;0.80;;
72060;SDS011;59925;52.136;5.420;2022-12-29T10:45:29;7.15;;;0.60;;
72060;SDS011;59925;52.136;5.420;2022-12-29T10:47:59;3.50;;;0.80;;
72060;SDS011;59925;52.136;5.420;2022-12-29T10:50:29;3.20;;;0.70;;
72060;SDS011;59925;52.136;5.420;2022-12-29T10:52:59;7.03;;;0.80;;
72060;SDS011;59925;52.136;5.420;2022-12-29T10:55:32;5.93;;;0.80;;
72060;SDS011;59925;52.136;5.420;2022-12-29T10:58:02;6.75;;;1.20;;
72060;SDS011;59925;52.136;5.420;2022-12-29T11:00:32;5.15;;;0.80;;
72060;SDS011;59925;52.136;5.420;2022-12-29T11:03:30;8.60;;;1.25;;
72060;SDS011;59925;52.136;5.420;2022-12-29T11:06:09;10.03;;;1.33;;
72060;SDS011;59925;52.136;5.420;2022-12-29T11:09:31;10.02;;;0.90;;
72060;SDS011;59925;52.136;5.420;2022-12-29T11:15:15;8.60;;;1.38;;
72060;SDS011;59925;52.136;5.420;2022-12-29T11:17:45;11.48;;;1.80;;
72060;SDS011;59925;52.136;5.420;2022-12-29T11:20:36;7.30;;;0.97;;
72060;SDS011;59925;52.136;5.420;2022-12-29T11:26:05;9.35;;;1.25;;
72060;SDS011;59925;52.136;5.420;2022-12-29T11:31:52;13.90;;;1.30;;
72060;SDS011;59925;52.136;5.420;2022-12-29T11:34:25;12.10;;;2.00;;
72060;SDS011;59925;52.136;5.420;2022-12-29T11:39:53;12.07;;;1.38;;
72060;SDS011;59925;52.136;5.420;2022-12-29T11:42:30;14.57;;;1.38;;
72060;SDS011;59925;52.136;5.420;2022-12-29T11:44:58;9.10;;;1.80;;
72060;SDS011;59925;52.136;5.420;2022-12-29T11:47:36;10.13;;;1.20;;
72060;SDS011;59925;52.136;5.420;2022-12-29T11:50:04;13.52;;;1.50;;
72060;SDS011;59925;52.136;5.420;2022-12-29T11:52:33;9.68;;;1.33;;
72060;SDS011;59925;52.136;5.420;2022-12-29T11:55:04;9.15;;;0.80;;
72060;SDS011;59925;52.136;5.420;2022-12-29T11:57:33;11.27;;;1.00;;
72060;SDS011;59925;52.136;5.420;2022-12-29T12:00:03;9.47;;;1.17;;
72060;SDS011;59925;52.136;5.420;2022-12-29T12:10:48;11.20;;;1.42;;
72060;SDS011;59925;52.136;5.420;2022-12-29T12:13:33;13.13;;;1.20;;
72060;SDS011;59925;52.136;5.420;2022-12-29T12:16:09;14.73;;;1.48;;
72060;SDS011;59925;52.136;5.420;2022-12-29T12:21:30;4.30;;;1.02;;
72060;SDS011;59925;52.136;5.420;2022-12-29T12:40:56;14.73;;;1.70;;
72060;SDS011;59925;52.136;5.420;2022-12-29T12:43:49;12.10;;;1.58;;
72060;SDS011;59925;52.136;5.420;2022-12-29T12:55:13;12.93;;;1.67;;
72060;SDS011;59925;52.136;5.420;2022-12-29T13:00:38;13.70;;;2.13;;
72060;SDS011;59925;52.136;5.420;2022-12-29T13:06:44;9.05;;;1.23;;
72060;SDS011;59925;52.136;5.420;2022-12-29T13:14:57;11.60;;;1.30;;
72060;SDS011;59925;52.136;5.420;2022-12-29T13:20:39;4.80;;;0.80;;
72060;SDS011;59925;52.136;5.420;2022-12-29T13:23:17;9.27;;;1.20;;
72060;SDS011;59925;52.136;5.420;2022-12-29T13:28:53;8.70;;;1.38;;
72060;SDS011;59925;52.136;5.420;2022-12-29T13:34:40;8.63;;;1.63;;
72060;SDS011;59925;52.136;5.420;2022-12-29T13:37:20;6.87;;;1.27;;
72060;SDS011;59925;52.136;5.420;2022-12-29T13:39:54;14.18;;;1.65;;
72060;SDS011;59925;52.136;5.420;2022-12-29T13:42:22;8.10;;;1.30;;
72060;SDS011;59925;52.136;5.420;2022-12-29T13:47:34;9.05;;;1.60;;
72060;SDS011;59925;52.136;5.420;2022-12-29T13:50:08;10.87;;;1.43;;
72060;SDS011;59925;52.136;5.420;2022-12-29T13:52:44;8.55;;;1.40;;
72060;SDS011;59925;52.136;5.420;2022-12-29T13:58:00;9.73;;;1.30;;
72060;SDS011;59925;52.136;5.420;2022-12-29T14:00:46;12.40;;;1.92;;
72060;SDS011;59925;52.136;5.420;2022-12-29T14:06:05;8.02;;;1.92;;
72060;SDS011;59925;52.136;5.420;2022-12-29T14:08:40;6.68;;;0.95;;
72060;SDS011;59925;52.136;5.420;2022-12-29T14:11:07;11.50;;;1.55;;
72060;SDS011;59925;52.136;5.420;2022-12-29T14:13:40;9.90;;;1.13;;
72060;SDS011;59925;52.136;5.420;2022-12-29T14:16:29;5.83;;;0.97;;
72060;SDS011;59925;52.136;5.420;2022-12-29T14:19:05;7.57;;;1.10;;
72060;SDS011;59925;52.136;5.420;2022-12-29T14:21:40;11.20;;;0.90;;
72060;SDS011;59925;52.136;5.420;2022-12-29T14:34:47;2.47;;;0.40;;
72060;SDS011;59925;52.136;5.420;2022-12-29T14:37:27;3.33;;;0.65;;
72060;SDS011;59925;52.136;5.420;2022-12-29T14:42:49;3.87;;;0.60;;
72060;SDS011;59925;52.136;5.420;2022-12-29T14:55:41;4.00;;;0.63;;
72060;SDS011;59925;52.136;5.420;2022-12-29T14:58:31;4.93;;;0.80;;
72060;SDS011;59925;52.136;5.420;2022-12-29T15:01:12;2.38;;;0.50;;
72060;SDS011;59925;52.136;5.420;2022-12-29T15:03:45;1.88;;;0.40;;
72060;SDS011;59925;52.136;5.420;2022-12-29T15:06:16;4.28;;;0.50;;
72060;SDS011;59925;52.136;5.420;2022-12-29T15:09:02;4.10;;;0.60;;
72060;SDS011;59925;52.136;5.420;2022-12-29T15:11:41;3.45;;;0.63;;
72060;SDS011;59925;52.136;5.420;2022-12-29T15:14:26;5.07;;;0.98;;
72060;SDS011;59925;52.136;5.420;2022-12-29T15:16:58;4.47;;;1.10;;
72060;SDS011;59925;52.136;5.420;2022-12-29T15:19:27;5.65;;;1.08;;
72060;SDS011;59925;52.136;5.420;2022-12-29T15:21:54;8.10;;;0.80;;
72060;SDS011;59925;52.136;5.420;2022-12-29T15:24:22;7.70;;;0.80;;
72060;SDS011;59925;52.136;5.420;2022-12-29T15:26:50;5.70;;;1.02;;
72060;SDS011;59925;52.136;5.420;2022-12-29T15:29:32;5.63;;;0.80;;
72060;SDS011;59925;52.136;5.420;2022-12-29T15:32:11;8.18;;;0.80;;
72060;SDS011;59925;52.136;5.420;2022-12-29T15:34:42;6.77;;;1.00;;
72060;SDS011;59925;52.136;5.420;2022-12-29T15:37:09;4.45;;;0.80;;
72060;SDS011;59925;52.136;5.420;2022-12-29T15:39:35;6.93;;;0.98;;
72060;SDS011;59925;52.136;5.420;2022-12-29T15:44:47;7.35;;;1.08;;
72060;SDS011;59925;52.136;5.420;2022-12-29T15:47:24;5.20;;;1.10;;
72060;SDS011;59925;52.136;5.420;2022-12-29T15:50:05;5.53;;;0.75;;
72060;SDS011;59925;52.136;5.420;2022-12-29T15:52:35;4.93;;;1.15;;
72060;SDS011;59925;52.136;5.420;2022-12-29T15:55:05;6.22;;;0.98;;
72060;SDS011;59925;52.136;5.420;2022-12-29T15:57:42;8.25;;;0.93;;
72060;SDS011;59925;52.136;5.420;2022-12-29T16:00:22;5.90;;;0.80;;
72060;SDS011;59925;52.136;5.420;2022-12-29T16:02:54;4.28;;;0.60;;
72060;SDS011;59925;52.136;5.420;2022-12-29T16:05:23;4.90;;;0.95;;
72060;SDS011;59925;52.136;5.420;2022-12-29T16:07:57;6.50;;;1.02;;
72060;SDS011;59925;52.136;5.420;2022-12-29T16:10:32;4.18;;;0.60;;
72060;SDS011;59925;52.136;5.420;2022-12-29T16:13:12;9.57;;;0.93;;
72060;SDS011;59925;52.136;5.420;2022-12-29T16:15:46;4.32;;;0.55;;
72060;SDS011;59925;52.136;5.420;2022-12-29T16:21:20;8.43;;;0.93;;
72060;SDS011;59925;52.136;5.420;2022-12-29T16:23:51;4.47;;;0.60;;
72060;SDS011;59925;52.136;5.420;2022-12-29T16:26:21;4.30;;;0.90;;
72060;SDS011;59925;52.136;5.420;2022-12-29T16:28:50;5.53;;;0.95;;
72060;SDS011;59925;52.136;5.420;2022-12-29T16:31:35;4.78;;;0.70;;
72060;SDS011;59925;52.136;5.420;2022-12-29T16:34:19;8.13;;;0.95;;
72060;SDS011;59925;52.136;5.420;2022-12-29T16:36:53;5.10;;;0.77;;
72060;SDS011;59925;52.136;5.420;2022-12-29T16:39:37;4.80;;;0.70;;
72060;SDS011;59925;52.136;5.420;2022-12-29T16:50:30;1.65;;;0.60;;
72060;SDS011;59925;52.136;5.420;2022-12-29T16:52:58;3.80;;;0.70;;
72060;SDS011;59925;52.136;5.420;2022-12-29T16:55:26;5.55;;;0.60;;
72060;SDS011;59925;52.136;5.420;2022-12-29T16:57:52;6.30;;;0.52;;
72060;SDS011;59925;52.136;5.420;2022-12-29T17:00:23;3.00;;;0.50;;
72060;SDS011;59925;52.136;5.420;2022-12-29T17:02:52;3.20;;;0.50;;
72060;SDS011;59925;52.136;5.420;2022-12-29T17:05:22;4.87;;;0.63;;
72060;SDS011;59925;52.136;5.420;2022-12-29T17:07:49;5.40;;;0.60;;
72060;SDS011;59925;52.136;5.420;2022-12-29T17:10:17;7.53;;;0.80;;
72060;SDS011;59925;52.136;5.420;2022-12-29T17:12:44;5.57;;;0.57;;
72060;SDS011;59925;52.136;5.420;2022-12-29T17:15:14;7.82;;;1.23;;
72060;SDS011;59925;52.136;5.420;2022-12-29T17:17:51;5.27;;;0.33;;
72060;SDS011;59925;52.136;5.420;2022-12-29T17:20:27;9.70;;;0.70;;
72060;SDS011;59925;52.136;5.420;2022-12-29T17:22:56;6.00;;;0.50;;
72060;SDS011;59925;52.136;5.420;2022-12-29T17:25:27;3.40;;;0.30;;
72060;SDS011;59925;52.136;5.420;2022-12-29T17:27:58;7.75;;;0.50;;
72060;SDS011;59925;52.136;5.420;2022-12-29T17:30:31;7.03;;;0.60;;
72060;SDS011;59925;52.136;5.420;2022-12-29T17:33:03;7.72;;;0.70;;
72060;SDS011;59925;52.136;5.420;2022-12-29T17:35:33;7.45;;;0.50;;
72060;SDS011;59925;52.136;5.420;2022-12-29T17:38:00;2.95;;;0.40;;
72060;SDS011;59925;52.136;5.420;2022-12-29T17:40:27;7.15;;;0.85;;
72060;SDS011;59925;52.136;5.420;2022-12-29T17:42:56;7.27;;;0.63;;